Terminal Aerodrome Forecast
Issued by NWS

Home | Current Version | Previous Version | Text Only | Print | Product List | Glossary On
Versions: 1 2 3 4 5 6 7 8 9 10 11 12 13 14 15 16
000
FTUS42 TJSJ 272346
TAFJSJ
TAF
TJSJ 272346Z 2800/2824 07017G25KT P6SM VCSH SCT025 BKN040 BKN080
      TEMPO 2802/2806 VRB15G33KT 2SM +TSRA BKN020CB OVC035
     FM280600 13025G35KT 5SM +SHRA VCTS SCT022CB OVC040
      TEMPO 2806/2809 VRB35G50KT 3SM TSRA BKN025CB
     FM280900 15035G50KT 5SM +SHRA VCTS SCT025CB BKN050
     FM281500 12014G30KT P6SM SHRA SCT025 BKN060 OVC100=

USA.gov is the U.S. government's official web portal to all federal, state and local government web resources and services.